createdAt,value
2022-11-16T00:00:39.855Z,73.98
2022-11-16T00:01:40.008Z,73.98
2022-11-16T00:02:40.033Z,73.98
2022-11-16T00:03:40.120Z,73.98
2022-11-16T00:04:40.205Z,73.98
2022-11-16T00:05:40.291Z,73.98
2022-11-16T00:06:40.366Z,73.98
2022-11-16T00:07:40.440Z,73.98
2022-11-16T00:08:40.510Z,74.08
2022-11-16T00:09:40.617Z,74.08
2022-11-16T00:10:40.705Z,73.98
2022-11-16T00:11:40.778Z,73.98
2022-11-16T00:12:40.858Z,73.98
2022-11-16T00:13:40.940Z,73.98
2022-11-16T00:14:41.039Z,73.98
2022-11-16T00:15:41.113Z,73.98
2022-11-16T00:16:41.209Z,74.08
2022-11-16T00:17:41.294Z,74.08
2022-11-16T00:18:41.365Z,74.08
2022-11-16T00:19:41.451Z,74.19
2022-11-16T00:20:41.515Z,74.19
2022-11-16T00:21:41.590Z,74.19
2022-11-16T00:22:41.658Z,74.19
2022-11-16T00:23:41.733Z,74.19
2022-11-16T00:24:41.830Z,74.19
2022-11-16T00:25:41.874Z,74.29
2022-11-16T00:26:41.947Z,74.19
2022-11-16T00:27:42.020Z,74.08
2022-11-16T00:28:42.126Z,74.08
2022-11-16T00:29:42.284Z,74.08
2022-11-16T00:30:42.278Z,74.08
2022-11-16T00:31:42.407Z,74.08
2022-11-16T00:32:42.461Z,74.19
2022-11-16T00:33:42.575Z,74.19
2022-11-16T00:34:42.668Z,74.29
2022-11-16T00:35:42.703Z,74.29
2022-11-16T00:36:42.793Z,74.29
2022-11-16T00:37:42.868Z,74.29
2022-11-16T00:38:42.956Z,74.29
2022-11-16T00:39:43.083Z,74.19
2022-11-16T00:40:43.142Z,74.19
2022-11-16T00:41:43.217Z,74.19
2022-11-16T00:42:43.320Z,74.19
2022-11-16T00:43:43.367Z,74.29
2022-11-16T00:44:43.501Z,74.29
2022-11-16T00:45:43.513Z,74.19
2022-11-16T00:46:43.630Z,74.19
2022-11-16T00:47:43.667Z,74.29
2022-11-16T00:48:43.733Z,74.29
2022-11-16T00:49:43.912Z,74.19
2022-11-16T00:50:43.950Z,74.29
2022-11-16T00:51:44.013Z,74.19
2022-11-16T00:52:44.058Z,74.19
2022-11-16T00:53:44.145Z,74.08
2022-11-16T00:54:44.250Z,74.08
2022-11-16T00:55:44.285Z,74.08
2022-11-16T00:56:44.395Z,74.08
2022-11-16T00:57:44.463Z,74.08
2022-11-16T00:58:44.529Z,74.08
2022-11-16T00:59:44.635Z,74.08
2022-11-16T01:00:44.690Z,74.19
2022-11-16T01:01:44.846Z,74.19
2022-11-16T01:02:44.842Z,74.29
2022-11-16T01:03:44.928Z,74.19
2022-11-16T01:04:45.010Z,74.19
2022-11-16T01:05:45.113Z,74.29
2022-11-16T01:06:45.181Z,74.19
2022-11-16T01:07:45.240Z,74.19
2022-11-16T01:08:45.344Z,74.19
2022-11-16T01:09:45.429Z,74.19
2022-11-16T01:10:45.468Z,74.19
2022-11-16T01:11:45.578Z,74.19
2022-11-16T01:12:45.624Z,74.29
2022-11-16T01:13:45.698Z,74.49
2022-11-16T01:14:45.807Z,74.60
2022-11-16T01:15:45.862Z,74.60
2022-11-16T01:16:45.954Z,74.60
2022-11-16T01:17:46.023Z,74.60
2022-11-16T01:18:46.076Z,74.60
2022-11-16T01:19:46.191Z,74.70
2022-11-16T01:20:46.227Z,74.80
2022-11-16T01:21:46.309Z,74.90
2022-11-16T01:22:46.393Z,74.90
2022-11-16T01:23:46.483Z,74.90
2022-11-16T01:24:46.556Z,75.01
2022-11-16T01:25:46.639Z,75.01
2022-11-16T01:26:46.717Z,75.11
2022-11-16T01:27:46.822Z,75.21
2022-11-16T01:28:46.902Z,75.31
2022-11-16T01:29:46.999Z,75.21
2022-11-16T01:30:47.074Z,75.11
2022-11-16T01:31:47.096Z,75.11
2022-11-16T01:32:47.174Z,74.90
2022-11-16T01:33:47.261Z,74.90
2022-11-16T01:34:47.366Z,75.01
2022-11-16T01:35:47.435Z,75.11
2022-11-16T01:36:47.550Z,75.07
2022-11-16T01:37:47.629Z,75.18
2022-11-16T01:38:47.687Z,75.28
2022-11-16T01:39:47.800Z,75.38
2022-11-16T01:40:47.881Z,75.48
2022-11-16T01:41:47.919Z,75.48
2022-11-16T01:42:48.031Z,75.59
2022-11-16T01:43:48.185Z,75.59
2022-11-16T01:44:48.173Z,75.48
2022-11-16T01:45:48.211Z,75.48
2022-11-16T01:46:48.326Z,75.48
2022-11-16T01:47:48.353Z,75.89
2022-11-16T01:48:48.502Z,76.20
2022-11-16T01:49:48.528Z,76.20
2022-11-16T01:50:48.583Z,76.31
2022-11-16T01:51:48.691Z,76.20
2022-11-16T01:52:48.761Z,76.20
2022-11-16T01:53:48.851Z,76.31
2022-11-16T01:54:48.980Z,76.31
2022-11-16T01:55:49.059Z,76.17
2022-11-16T01:56:49.088Z,76.06
2022-11-16T01:57:49.173Z,76.17
2022-11-16T01:58:49.243Z,76.17
2022-11-16T01:59:49.343Z,76.37
2022-11-16T02:00:49.528Z,76.37
2022-11-16T02:01:49.532Z,76.27
2022-11-16T02:02:49.566Z,76.37
2022-11-16T02:03:49.659Z,76.27
2022-11-16T02:04:49.769Z,76.27
2022-11-16T02:05:49.825Z,76.27
2022-11-16T02:06:50.033Z,76.47
2022-11-16T02:07:49.989Z,76.57
2022-11-16T02:08:50.066Z,76.47
2022-11-16T02:09:50.180Z,76.37
2022-11-16T02:10:50.248Z,76.47
2022-11-16T02:11:50.326Z,76.47
2022-11-16T02:12:50.428Z,76.57
2022-11-16T02:13:51.548Z,76.57
2022-11-16T02:14:50.665Z,76.68
2022-11-16T02:15:50.689Z,76.78
2022-11-16T02:16:50.729Z,76.78
2022-11-16T02:17:50.792Z,76.78
2022-11-16T02:18:50.940Z,76.78
2022-11-16T02:19:51.042Z,76.68
2022-11-16T02:20:51.068Z,76.78
2022-11-16T02:21:51.179Z,76.88
2022-11-16T02:22:51.301Z,76.88
2022-11-16T02:23:51.340Z,76.98
2022-11-16T02:24:51.433Z,77.09
2022-11-16T02:25:51.502Z,77.19
2022-11-16T02:26:51.561Z,77.29
2022-11-16T02:27:51.627Z,77.29
2022-11-16T02:28:51.685Z,77.19
2022-11-16T02:29:51.790Z,77.19
2022-11-16T02:30:51.850Z,77.19
2022-11-16T02:31:52.013Z,77.29
2022-11-16T02:32:52.041Z,77.29
2022-11-16T02:33:52.104Z,77.39
2022-11-16T02:34:52.193Z,77.60
2022-11-16T02:35:52.302Z,77.50
2022-11-16T02:36:52.377Z,77.50
2022-11-16T02:37:52.424Z,77.60
2022-11-16T02:38:52.500Z,77.80
2022-11-16T02:39:52.608Z,77.91
2022-11-16T02:40:52.680Z,78.01
2022-11-16T02:41:52.755Z,78.11
2022-11-16T02:42:52.803Z,78.21
2022-11-16T02:43:52.903Z,78.42
2022-11-16T02:44:52.998Z,78.42
2022-11-16T02:45:53.012Z,78.52
2022-11-16T02:46:53.219Z,78.52
2022-11-16T02:47:53.219Z,78.52
2022-11-16T02:48:53.274Z,78.52
2022-11-16T02:49:53.382Z,78.63
2022-11-16T02:50:53.442Z,78.63
2022-11-16T02:51:53.604Z,78.63
2022-11-16T02:52:53.631Z,78.72
2022-11-16T02:53:53.672Z,78.72
2022-11-16T02:54:53.831Z,78.72
2022-11-16T02:55:53.890Z,78.63
2022-11-16T02:56:53.980Z,78.63
2022-11-16T02:57:54.036Z,78.52
2022-11-16T02:58:54.111Z,78.52
2022-11-16T02:59:54.404Z,78.52
2022-11-16T03:00:54.425Z,78.52
2022-11-16T03:01:54.391Z,78.52
2022-11-16T03:02:54.491Z,78.52
2022-11-16T03:03:54.531Z,78.52
2022-11-16T03:04:54.632Z,78.52
2022-11-16T03:05:54.659Z,78.42
2022-11-16T03:06:54.773Z,78.42
2022-11-16T03:07:54.814Z,78.52
2022-11-16T03:08:54.906Z,78.52
2022-11-16T03:09:55.032Z,78.52
2022-11-16T03:10:55.093Z,78.63
2022-11-16T03:11:55.182Z,78.83
2022-11-16T03:12:55.283Z,78.93
2022-11-16T03:13:55.319Z,78.83
2022-11-16T03:14:55.452Z,78.83
2022-11-16T03:15:55.500Z,78.72
2022-11-16T03:16:55.643Z,78.72
2022-11-16T03:17:55.701Z,78.72
2022-11-16T03:18:55.809Z,78.72
2022-11-16T03:19:55.864Z,78.63
2022-11-16T03:20:56.000Z,78.63
2022-11-16T03:21:56.002Z,78.72
2022-11-16T03:22:56.101Z,78.83
2022-11-16T03:23:56.223Z,78.83
2022-11-16T03:24:56.299Z,78.83
2022-11-16T03:25:56.345Z,78.63
2022-11-16T03:26:56.385Z,79.03
2022-11-16T03:27:56.473Z,79.17
2022-11-16T03:28:56.595Z,79.24
2022-11-16T03:29:56.666Z,79.17
2022-11-16T03:30:56.736Z,79.99
2022-11-16T03:31:56.796Z,80.05
2022-11-16T03:32:56.862Z,79.79
2022-11-16T03:33:56.927Z,79.79
2022-11-16T03:34:57.046Z,79.89
2022-11-16T03:35:57.119Z,79.99
2022-11-16T03:36:57.163Z,79.99
2022-11-16T03:37:57.246Z,79.89
2022-11-16T03:38:57.323Z,79.79
2022-11-16T03:39:57.421Z,79.79
2022-11-16T03:40:57.498Z,79.79
2022-11-16T03:41:57.577Z,79.68
2022-11-16T03:42:57.661Z,79.68
2022-11-16T03:43:57.748Z,79.68
2022-11-16T03:44:57.847Z,79.64
2022-11-16T03:45:57.881Z,79.75
2022-11-16T03:46:57.959Z,79.75
2022-11-16T03:47:58.049Z,79.64
2022-11-16T03:48:58.143Z,79.54
2022-11-16T03:49:58.264Z,79.64
2022-11-16T03:50:58.330Z,79.75
2022-11-16T03:51:58.377Z,79.75
2022-11-16T03:52:58.487Z,79.75
2022-11-16T03:53:58.524Z,79.85
2022-11-16T03:54:58.644Z,79.96
2022-11-16T03:55:58.669Z,80.16
2022-11-16T03:56:58.768Z,80.16
2022-11-16T03:57:58.848Z,80.26
2022-11-16T03:58:58.941Z,80.26
2022-11-16T03:59:59.059Z,80.36
2022-11-16T04:00:59.199Z,80.26
2022-11-16T04:01:59.172Z,80.26
2022-11-16T04:02:59.250Z,80.26
2022-11-16T04:03:59.336Z,80.26
2022-11-16T04:04:59.439Z,80.26
2022-11-16T04:05:59.475Z,80.36
2022-11-16T04:06:59.655Z,80.36
2022-11-16T04:07:59.639Z,80.36
2022-11-16T04:08:59.738Z,80.26
2022-11-16T04:09:59.858Z,80.26
2022-11-16T04:10:59.926Z,80.26
2022-11-16T04:11:59.979Z,80.26
2022-11-16T04:13:00.076Z,80.16
2022-11-16T04:14:00.168Z,80.26
2022-11-16T04:15:00.271Z,80.26
2022-11-16T04:16:00.317Z,80.26
2022-11-16T04:17:00.399Z,80.26
2022-11-16T04:18:00.511Z,80.26
2022-11-16T04:19:00.556Z,80.26
2022-11-16T04:20:00.654Z,80.36
2022-11-16T04:21:00.799Z,80.57
2022-11-16T04:22:00.797Z,80.57
2022-11-16T04:23:00.878Z,80.57
2022-11-16T04:24:00.963Z,80.67
2022-11-16T04:25:01.053Z,80.57
2022-11-16T04:26:01.172Z,80.57
2022-11-16T04:27:01.247Z,80.46
2022-11-16T04:28:01.285Z,80.36
2022-11-16T04:29:01.378Z,80.36
2022-11-16T04:30:01.491Z,80.36
2022-11-16T04:31:01.578Z,80.26
2022-11-16T04:32:01.653Z,80.16
2022-11-16T04:33:01.750Z,80.16
2022-11-16T04:34:01.857Z,80.05
2022-11-16T04:35:01.924Z,80.05
2022-11-16T04:36:02.018Z,79.96
2022-11-16T04:37:02.094Z,79.96
2022-11-16T04:38:02.174Z,79.85
2022-11-16T04:39:02.288Z,79.85
2022-11-16T04:40:02.365Z,79.96
2022-11-16T04:41:02.460Z,79.96
2022-11-16T04:42:02.544Z,79.99
2022-11-16T04:43:02.584Z,79.96
2022-11-16T04:44:02.683Z,79.96
2022-11-16T04:45:02.808Z,79.96
2022-11-16T04:46:02.881Z,79.96
2022-11-16T04:47:02.926Z,79.96
2022-11-16T04:48:03.010Z,79.96
2022-11-16T04:49:03.130Z,79.96
2022-11-16T04:50:03.183Z,79.96
2022-11-16T04:51:03.273Z,79.96
2022-11-16T04:52:03.355Z,79.85
2022-11-16T04:53:03.456Z,79.85
2022-11-16T04:54:03.563Z,79.85
2022-11-16T04:55:03.654Z,79.85
2022-11-16T04:56:03.702Z,79.85
2022-11-16T04:57:03.823Z,79.75
2022-11-16T04:58:03.846Z,79.75
2022-11-16T04:59:03.954Z,79.75
2022-11-16T05:00:04.045Z,79.64
2022-11-16T05:01:04.215Z,79.64
2022-11-16T05:02:04.222Z,79.64
2022-11-16T05:03:04.269Z,79.64
2022-11-16T05:04:04.365Z,79.75
2022-11-16T05:05:04.479Z,79.75
2022-11-16T05:06:04.542Z,79.75
2022-11-16T05:07:04.675Z,79.75
2022-11-16T05:08:04.655Z,79.64
2022-11-16T05:09:04.727Z,79.64
2022-11-16T05:10:04.831Z,79.68
2022-11-16T05:11:04.909Z,79.58
2022-11-16T05:12:05.001Z,79.58
2022-11-16T05:13:05.107Z,79.68
2022-11-16T05:14:05.170Z,79.68
2022-11-16T05:15:05.291Z,79.79
2022-11-16T05:16:05.345Z,79.79
2022-11-16T05:17:05.466Z,79.79
2022-11-16T05:18:05.556Z,79.79
2022-11-16T05:19:05.797Z,79.68
2022-11-16T05:20:05.724Z,79.68
2022-11-16T05:21:05.773Z,79.79
2022-11-16T05:22:05.819Z,79.89
2022-11-16T05:23:05.941Z,79.99
2022-11-16T05:24:06.001Z,79.99
2022-11-16T05:25:06.148Z,79.99
2022-11-16T05:26:06.201Z,79.99
2022-11-16T05:27:06.268Z,80.09
2022-11-16T05:28:06.315Z,80.19
2022-11-16T05:29:06.398Z,80.19
2022-11-16T05:30:06.499Z,80.26
2022-11-16T05:31:06.578Z,80.30
2022-11-16T05:32:06.766Z,80.30
2022-11-16T05:33:06.686Z,80.30
2022-11-16T05:34:06.786Z,80.30
2022-11-16T05:35:06.871Z,80.40
2022-11-16T05:36:06.969Z,80.30
2022-11-16T05:37:07.110Z,80.40
2022-11-16T05:38:07.143Z,80.51
2022-11-16T05:39:07.218Z,80.60
2022-11-16T05:40:07.282Z,80.60
2022-11-16T05:41:07.373Z,80.60
2022-11-16T05:42:07.417Z,80.71
2022-11-16T05:43:07.530Z,80.71
2022-11-16T05:44:07.585Z,80.71
2022-11-16T05:45:07.737Z,80.71
2022-11-16T05:46:07.741Z,80.71
2022-11-16T05:47:07.825Z,80.81
2022-11-16T05:48:07.927Z,80.81
2022-11-16T05:49:08.031Z,80.81
2022-11-16T05:50:08.129Z,80.91
2022-11-16T05:51:08.198Z,80.81
2022-11-16T05:52:08.268Z,80.60
2022-11-16T05:53:08.338Z,80.60
2022-11-16T05:54:08.432Z,80.60
2022-11-16T05:55:08.517Z,80.51
2022-11-16T05:56:08.774Z,80.60
2022-11-16T05:57:08.757Z,80.60
2022-11-16T05:58:08.804Z,80.71
2022-11-16T05:59:12.492Z,80.71
2022-11-16T06:00:08.931Z,80.71
2022-11-16T06:01:09.031Z,80.81
2022-11-16T06:02:09.160Z,80.81
2022-11-16T06:03:09.231Z,80.91
2022-11-16T06:04:09.268Z,80.91
2022-11-16T06:05:09.329Z,80.91
2022-11-16T06:06:09.448Z,81.01
2022-11-16T06:07:09.609Z,81.01
2022-11-16T06:08:09.568Z,81.01
2022-11-16T06:09:09.659Z,81.22
2022-11-16T06:10:09.784Z,81.12
2022-11-16T06:11:09.821Z,81.12
2022-11-16T06:12:09.912Z,81.12
2022-11-16T06:13:10.012Z,81.12
2022-11-16T06:14:10.084Z,81.01
2022-11-16T06:15:10.196Z,81.01
2022-11-16T06:16:10.247Z,81.01
2022-11-16T06:17:10.345Z,81.01
2022-11-16T06:18:10.461Z,80.91
2022-11-16T06:19:10.488Z,81.01
2022-11-16T06:20:10.597Z,81.01
2022-11-16T06:21:10.655Z,81.01
2022-11-16T06:22:10.731Z,81.01
2022-11-16T06:23:10.809Z,80.91
2022-11-16T06:24:10.901Z,80.91
2022-11-16T06:25:11.013Z,80.91
2022-11-16T06:26:11.060Z,80.98
2022-11-16T06:27:11.154Z,80.88
2022-11-16T06:28:11.319Z,80.88
2022-11-16T06:29:11.282Z,80.98
2022-11-16T06:30:11.399Z,80.98
2022-11-16T06:31:11.437Z,80.98
2022-11-16T06:32:11.528Z,80.98
2022-11-16T06:33:11.577Z,80.88
2022-11-16T06:34:11.674Z,80.88
2022-11-16T06:35:11.744Z,80.98
2022-11-16T06:36:11.832Z,80.98
2022-11-16T06:37:11.904Z,80.98
2022-11-16T06:38:11.993Z,80.98
2022-11-16T06:39:12.059Z,80.98
2022-11-16T06:40:12.191Z,80.98
2022-11-16T06:41:12.256Z,80.98
2022-11-16T06:42:12.350Z,80.98
2022-11-16T06:43:12.417Z,80.98
2022-11-16T06:44:12.498Z,80.98
2022-11-16T06:45:12.615Z,80.88
2022-11-16T06:46:12.651Z,80.88
2022-11-16T06:47:12.809Z,80.88
2022-11-16T06:48:12.916Z,80.88
2022-11-16T06:49:12.895Z,80.88
2022-11-16T06:50:13.038Z,80.77
2022-11-16T06:51:13.078Z,80.77
2022-11-16T06:52:13.189Z,80.77
2022-11-16T06:53:29.440Z,80.67
2022-11-16T06:54:13.376Z,80.67
2022-11-16T06:55:13.508Z,80.71
2022-11-16T06:56:13.502Z,80.81
2022-11-16T06:57:13.579Z,80.91
2022-11-16T06:58:13.648Z,80.91
2022-11-16T06:59:13.727Z,80.91
2022-11-16T07:00:13.837Z,80.91
2022-11-16T07:01:13.990Z,80.88
2022-11-16T07:02:14.081Z,80.91
2022-11-16T07:03:14.063Z,80.88
2022-11-16T07:04:14.159Z,80.88
2022-11-16T07:05:14.264Z,80.88
2022-11-16T07:06:14.338Z,80.88
2022-11-16T07:07:14.458Z,80.88
2022-11-16T07:08:14.460Z,80.88
2022-11-16T07:09:14.580Z,80.88
2022-11-16T07:10:14.655Z,80.88
2022-11-16T07:11:14.739Z,80.88
2022-11-16T07:12:14.829Z,80.88
2022-11-16T07:13:14.870Z,80.98
2022-11-16T07:14:14.979Z,80.88
2022-11-16T07:15:15.084Z,80.98
2022-11-16T07:16:15.178Z,80.98
2022-11-16T07:17:15.264Z,80.98
2022-11-16T07:18:15.362Z,80.98
2022-11-16T07:19:15.701Z,80.98
2022-11-16T07:20:15.506Z,80.98
2022-11-16T07:21:15.646Z,80.88
2022-11-16T07:22:27.847Z,80.77
2022-11-16T07:23:15.806Z,80.77
2022-11-16T07:24:15.821Z,80.88
2022-11-16T07:25:15.910Z,80.98
2022-11-16T07:26:16.032Z,81.08
2022-11-16T07:27:16.101Z,81.08
2022-11-16T07:28:16.174Z,81.08
2022-11-16T07:29:16.220Z,81.08
2022-11-16T07:30:16.333Z,81.08
2022-11-16T07:31:16.527Z,80.98
2022-11-16T07:32:16.448Z,80.98
2022-11-16T07:33:16.552Z,80.98
2022-11-16T07:34:16.622Z,80.98
2022-11-16T07:35:31.363Z,80.98
2022-11-16T07:36:16.836Z,80.88
2022-11-16T07:37:16.911Z,80.98
2022-11-16T07:38:18.233Z,81.08
2022-11-16T07:39:17.023Z,81.08
2022-11-16T07:40:17.115Z,81.08
2022-11-16T07:41:17.237Z,81.08
2022-11-16T07:42:17.303Z,81.08
2022-11-16T07:43:17.376Z,81.08
2022-11-16T07:44:17.432Z,80.94
2022-11-16T07:45:17.544Z,80.94
2022-11-16T07:46:45.277Z,80.94
2022-11-16T07:47:17.679Z,80.94
2022-11-16T07:48:17.716Z,80.94
2022-11-16T07:49:17.851Z,80.94
2022-11-16T07:50:17.874Z,80.94
2022-11-16T07:51:18.009Z,80.94
2022-11-16T07:52:18.084Z,80.94
2022-11-16T07:53:18.127Z,80.94
2022-11-16T07:54:18.225Z,81.15
2022-11-16T07:55:18.315Z,81.15
2022-11-16T07:56:18.426Z,81.15
2022-11-16T07:57:18.442Z,81.15
2022-11-16T07:58:18.536Z,81.15
2022-11-16T07:59:18.630Z,81.24
2022-11-16T08:00:18.713Z,81.35
2022-11-16T08:01:18.838Z,81.35
2022-11-16T08:02:18.885Z,81.35
2022-11-16T08:03:24.394Z,81.35
2022-11-16T08:04:19.082Z,81.24
2022-11-16T08:05:19.154Z,81.24
2022-11-16T08:06:19.268Z,81.15
2022-11-16T08:07:19.427Z,81.15
2022-11-16T08:08:19.406Z,81.15
2022-11-16T08:09:19.489Z,81.24
2022-11-16T08:10:19.620Z,81.24
2022-11-16T08:11:19.699Z,81.24
2022-11-16T08:12:19.743Z,81.35
2022-11-16T08:13:19.831Z,81.24
2022-11-16T08:14:19.993Z,81.24
2022-11-16T08:15:20.140Z,81.24
2022-11-16T08:16:20.144Z,81.21
2022-11-16T08:17:20.264Z,81.24
2022-11-16T08:18:20.264Z,81.31
2022-11-16T08:19:20.348Z,81.31
2022-11-16T08:20:20.444Z,81.31
2022-11-16T08:21:20.657Z,81.31
2022-11-16T08:22:20.611Z,81.31
2022-11-16T08:23:20.700Z,81.41
2022-11-16T08:24:20.818Z,81.41
2022-11-16T08:25:20.887Z,81.41
2022-11-16T08:26:20.961Z,81.41
2022-11-16T08:27:21.006Z,81.41
2022-11-16T08:28:21.103Z,81.41
2022-11-16T08:29:21.164Z,81.41
2022-11-16T08:30:21.266Z,81.41
2022-11-16T08:31:21.344Z,81.51
2022-11-16T08:32:21.387Z,81.51
2022-11-16T08:33:21.461Z,81.41
2022-11-16T08:34:21.610Z,81.41
2022-11-16T08:35:21.668Z,81.51
2022-11-16T08:36:21.774Z,81.51
2022-11-16T08:37:21.780Z,81.51
2022-11-16T08:38:21.899Z,81.62
2022-11-16T08:39:21.942Z,81.62
2022-11-16T08:40:22.026Z,81.62
2022-11-16T08:41:22.143Z,81.58
2022-11-16T08:42:22.220Z,81.68
2022-11-16T08:43:22.274Z,81.79
2022-11-16T08:44:22.333Z,81.79
2022-11-16T08:45:22.447Z,81.58
2022-11-16T08:46:22.583Z,81.48
2022-11-16T08:47:22.676Z,81.48
2022-11-16T08:48:22.720Z,81.48
2022-11-16T08:49:22.752Z,81.48
2022-11-16T08:50:22.844Z,81.38
2022-11-16T08:51:22.924Z,81.38
2022-11-16T08:53:58.793Z,81.38
2022-11-16T08:55:09.067Z,81.58
2022-11-16T08:56:00.000Z,81.82
2022-11-16T08:57:00.095Z,82.03
2022-11-16T08:58:00.196Z,81.99
2022-11-16T08:59:00.204Z,81.99
2022-11-16T09:00:00.307Z,81.88
2022-11-16T09:02:31.627Z,81.79
2022-11-16T09:03:32.710Z,81.82
2022-11-16T09:04:36.873Z,81.93
2022-11-16T09:05:32.863Z,81.99
2022-11-16T09:06:32.918Z,82.09
2022-11-16T09:07:33.100Z,81.88
2022-11-16T09:08:33.550Z,81.79
2022-11-16T09:09:33.181Z,81.58
2022-11-16T09:10:33.281Z,81.48
2022-11-16T09:11:33.388Z,81.27
2022-11-16T09:13:58.938Z,81.38
2022-11-16T09:14:59.936Z,81.27
2022-11-16T09:16:00.079Z,81.27
2022-11-16T09:17:00.124Z,81.27
2022-11-16T09:18:00.220Z,80.97
2022-11-16T09:19:00.322Z,80.97
2022-11-16T09:20:00.383Z,80.97
2022-11-16T09:21:00.498Z,80.46
2022-11-16T09:22:00.542Z,80.21
2022-11-16T09:23:00.623Z,80.32
2022-11-16T09:24:00.736Z,80.32
2022-11-16T09:25:00.778Z,80.32
2022-11-16T09:26:00.898Z,80.32
2022-11-16T09:27:00.936Z,80.01
2022-11-16T09:28:01.028Z,80.01
2022-11-16T09:29:01.163Z,79.91
2022-11-16T09:30:01.182Z,80.01
2022-11-16T09:31:01.260Z,79.91
2022-11-16T09:32:01.348Z,80.01
2022-11-16T09:33:01.432Z,80.11
2022-11-16T09:34:01.556Z,80.01
2022-11-16T09:35:01.618Z,80.01
2022-11-16T09:36:01.698Z,80.01
2022-11-16T09:37:01.793Z,80.11
2022-11-16T09:38:01.911Z,80.11
2022-11-16T09:40:02.055Z,80.11
2022-11-16T09:41:02.118Z,80.07
2022-11-16T09:42:02.223Z,80.11
2022-11-16T09:43:02.308Z,80.07
2022-11-16T09:44:02.410Z,80.07
2022-11-16T09:45:02.468Z,80.18
2022-11-16T09:46:02.587Z,80.18
2022-11-16T09:47:02.625Z,80.07
2022-11-16T09:48:02.726Z,80.07
2022-11-16T09:49:02.786Z,80.18
2022-11-16T09:50:03.974Z,79.87
2022-11-16T09:51:02.983Z,79.87
2022-11-16T09:52:03.065Z,79.77
2022-11-16T09:53:03.102Z,79.57
2022-11-16T09:54:03.233Z,79.46
2022-11-16T09:55:03.279Z,79.36
2022-11-16T09:56:03.364Z,79.36
2022-11-16T09:57:06.776Z,79.36
2022-11-16T09:58:03.532Z,79.36
2022-11-16T09:59:03.668Z,79.36
2022-11-16T10:00:03.717Z,79.36
2022-11-16T10:01:03.834Z,79.36
2022-11-16T10:02:03.909Z,79.36
2022-11-16T10:03:03.980Z,79.36
2022-11-16T10:04:04.079Z,79.36
2022-11-16T10:05:04.132Z,79.36
2022-11-16T10:06:04.237Z,79.36
2022-11-16T10:07:04.339Z,79.36
2022-11-16T10:08:04.407Z,79.25
2022-11-16T10:09:04.521Z,79.16
2022-11-16T10:10:04.580Z,79.16
2022-11-16T10:11:04.638Z,79.05
2022-11-16T10:12:04.700Z,78.95
2022-11-16T10:13:04.790Z,78.85
2022-11-16T10:14:04.907Z,78.85
2022-11-16T10:15:05.927Z,78.85
2022-11-16T10:16:04.996Z,78.85
2022-11-16T10:17:05.072Z,78.85
2022-11-16T10:18:05.176Z,78.85
2022-11-16T10:19:05.273Z,78.85
2022-11-16T10:20:05.379Z,78.85
2022-11-16T10:21:05.407Z,78.75
2022-11-16T10:22:05.491Z,78.75
2022-11-16T10:23:05.591Z,78.75
2022-11-16T10:24:05.664Z,78.75
2022-11-16T10:25:05.742Z,78.75
2022-11-16T10:26:05.845Z,78.64
2022-11-16T10:27:05.904Z,78.64
2022-11-16T10:28:05.949Z,78.54
2022-11-16T10:29:06.096Z,78.54
2022-11-16T10:30:06.083Z,78.54
2022-11-16T10:31:06.167Z,78.23
2022-11-16T10:32:06.275Z,78.23
2022-11-16T10:33:10.971Z,78.23
2022-11-16T10:34:06.492Z,78.34
2022-11-16T10:35:06.605Z,78.44
2022-11-16T10:36:06.619Z,78.44
2022-11-16T10:37:06.722Z,78.54
2022-11-16T10:38:06.769Z,78.64
2022-11-16T10:39:06.926Z,78.54
2022-11-16T10:40:07.059Z,78.44
2022-11-16T10:41:07.017Z,78.44
2022-11-16T10:42:07.830Z,78.44
2022-11-16T10:43:07.299Z,78.44
2022-11-16T10:44:07.321Z,78.34
2022-11-16T10:45:07.380Z,78.23
2022-11-16T10:46:07.450Z,78.34
2022-11-16T10:47:07.563Z,78.34
2022-11-16T10:48:07.628Z,78.34
2022-11-16T10:49:07.719Z,78.23
2022-11-16T10:50:07.783Z,78.20
2022-11-16T10:51:07.843Z,78.23
2022-11-16T10:52:07.916Z,78.13
2022-11-16T10:53:07.974Z,78.03
2022-11-16T10:54:08.079Z,78.13
2022-11-16T10:55:08.117Z,77.93
2022-11-16T10:56:08.223Z,77.93
2022-11-16T10:57:08.322Z,78.03
2022-11-16T10:58:08.413Z,77.93
2022-11-16T10:59:08.493Z,77.93
2022-11-16T11:00:12.600Z,77.93
2022-11-16T11:01:08.709Z,77.93
2022-11-16T11:02:08.716Z,77.93
2022-11-16T11:03:08.795Z,77.93
2022-11-16T11:04:08.890Z,77.93
2022-11-16T11:05:08.934Z,77.93
2022-11-16T11:06:09.008Z,77.93
2022-11-16T11:07:09.144Z,77.83
2022-11-16T11:08:09.197Z,77.79
2022-11-16T11:09:09.324Z,77.69
2022-11-16T11:10:09.369Z,77.48
2022-11-16T11:11:09.493Z,77.18
2022-11-16T11:12:09.541Z,77.08
2022-11-16T11:13:09.636Z,77.08
2022-11-16T11:14:09.743Z,76.97
2022-11-16T11:15:09.810Z,76.67
2022-11-16T11:16:09.866Z,76.56
2022-11-16T11:17:09.951Z,76.56
2022-11-16T11:18:10.036Z,75.95
2022-11-16T11:19:10.146Z,75.75
2022-11-16T11:20:10.221Z,75.75
2022-11-16T11:21:10.280Z,75.75
2022-11-16T11:22:10.368Z,75.85
2022-11-16T11:23:10.486Z,75.95
2022-11-16T11:24:42.448Z,76.06
2022-11-16T11:25:10.603Z,76.26
2022-11-16T11:26:10.679Z,76.36
2022-11-16T11:27:10.735Z,76.46
2022-11-16T11:28:10.869Z,76.56
2022-11-16T11:29:10.954Z,76.36
2022-11-16T11:30:10.995Z,76.26
2022-11-16T11:31:11.122Z,76.26
2022-11-16T11:32:11.169Z,76.26
2022-11-16T11:33:11.264Z,75.85
2022-11-16T11:34:11.394Z,75.75
2022-11-16T11:35:11.437Z,75.54
2022-11-16T11:36:11.547Z,75.24
2022-11-16T11:37:11.658Z,74.93
2022-11-16T11:38:11.745Z,74.52
2022-11-16T11:39:11.922Z,74.63
2022-11-16T11:40:11.887Z,74.73
2022-11-16T11:41:12.000Z,74.83
2022-11-16T11:42:12.062Z,74.93
2022-11-16T11:43:17.703Z,74.83
2022-11-16T11:44:12.246Z,75.04
2022-11-16T11:45:12.325Z,75.04
2022-11-16T11:46:12.366Z,74.83
2022-11-16T11:47:55.622Z,74.73
2022-11-16T11:48:12.553Z,74.83
2022-11-16T11:49:12.686Z,74.73
2022-11-16T11:50:12.740Z,74.83
2022-11-16T11:51:13.023Z,74.83
2022-11-16T11:52:12.897Z,74.83
2022-11-16T11:53:12.970Z,74.83
2022-11-16T11:54:13.062Z,74.90
2022-11-16T11:55:13.134Z,74.90
2022-11-16T11:56:13.181Z,74.79
2022-11-16T11:57:13.299Z,74.79
2022-11-16T11:58:13.345Z,74.79
2022-11-16T11:59:13.469Z,74.69
2022-11-16T12:00:13.604Z,74.29
2022-11-16T12:01:13.584Z,73.88
2022-11-16T12:02:13.670Z,73.98
2022-11-16T12:03:13.847Z,74.08
2022-11-16T12:04:13.879Z,74.08
2022-11-16T12:05:13.924Z,74.18
2022-11-16T12:06:13.966Z,74.08
2022-11-16T12:07:14.160Z,74.08
2022-11-16T12:08:14.152Z,74.18
2022-11-16T12:09:14.224Z,73.88
2022-11-16T12:10:14.272Z,73.88
2022-11-16T12:11:14.368Z,73.88
2022-11-16T12:12:15.078Z,73.77
2022-11-16T12:13:14.530Z,73.47
2022-11-16T12:14:14.649Z,73.36
2022-11-16T12:15:14.710Z,73.47
2022-11-16T12:16:14.762Z,73.47
2022-11-16T12:17:14.845Z,73.36
2022-11-16T12:18:14.936Z,73.27
2022-11-16T12:19:15.052Z,73.27
2022-11-16T12:20:15.096Z,73.27
2022-11-16T12:21:15.187Z,72.45
2022-11-16T12:22:15.266Z,72.45
2022-11-16T12:23:15.374Z,72.04
2022-11-16T12:24:15.445Z,72.14
2022-11-16T12:25:15.482Z,72.14
2022-11-16T12:26:15.588Z,71.73
2022-11-16T12:27:15.664Z,71.84
2022-11-16T12:28:15.756Z,71.22
2022-11-16T12:29:15.879Z,71.12
2022-11-16T12:30:15.962Z,71.43
2022-11-16T12:31:15.991Z,71.63
2022-11-16T12:32:16.069Z,71.84
2022-11-16T12:33:16.170Z,72.04
2022-11-16T12:34:16.270Z,72.14
2022-11-16T12:35:16.327Z,72.24
2022-11-16T12:36:16.421Z,72.34
2022-11-16T12:37:16.508Z,71.94
2022-11-16T12:38:19.472Z,71.73
2022-11-16T12:39:16.715Z,71.73
2022-11-16T12:40:16.782Z,71.73
2022-11-16T12:43:48.730Z,72.28
2022-11-16T12:44:49.830Z,72.38
2022-11-16T12:45:49.889Z,72.58
2022-11-16T12:46:49.962Z,72.69
2022-11-16T12:47:50.037Z,72.79
2022-11-16T12:48:50.097Z,72.79
2022-11-16T12:49:50.236Z,72.89
2022-11-16T12:50:50.259Z,72.99
2022-11-16T12:51:50.352Z,72.89
2022-11-16T12:52:50.436Z,72.89
2022-11-16T12:53:50.516Z,72.99
2022-11-16T12:55:18.960Z,72.99
2022-11-16T12:55:50.781Z,72.79
2022-11-16T12:56:50.728Z,72.79
2022-11-16T12:57:50.821Z,72.86
2022-11-16T12:58:50.951Z,72.96
2022-11-16T12:59:51.008Z,72.86
2022-11-16T13:00:51.186Z,72.86
2022-11-16T13:01:53.195Z,72.75